Time;durP1;ratioP1;P1;durP2;ratioP2;P2;SDS_P1;SDS_P2;PMS_P1;PMS_P2;Temp;Humidity;BMP_temperature;BMP_pressure;BME280_temperature;BME280_humidity;BME280_pressure;Samples;Min_cycle;Max_cycle;Signal;HPM_P1;HPM_P2
2023/12/12 00:03:02;;;;;;;8.18;4.13;;;10.20;99.90;;;;;;10442023;28;20223;-65
2023/12/12 00:08:07;;;;;;;12.77;4.70;;;10.20;99.90;;;;;;10434696;28;20274;-65
2023/12/12 00:13:12;;;;;;;10.03;3.97;;;10.20;99.90;;;;;;10436392;28;20219;-65
2023/12/12 00:18:15;;;;;;;8.88;3.50;;;10.20;99.90;;;;;;10438609;28;20603;-65
2023/12/12 00:23:21;;;;;;;10.32;3.63;;;10.20;99.90;;;;;;10435775;28;20249;-66
2023/12/12 00:28:25;;;;;;;8.15;3.10;;;10.20;99.90;;;;;;10445544;28;20207;-64
2023/12/12 00:33:29;;;;;;;10.73;3.73;;;10.20;99.90;;;;;;10435032;28;20238;-62
2023/12/12 00:38:34;;;;;;;10.47;3.00;;;10.20;99.90;;;;;;10439196;28;20663;-62
2023/12/12 00:43:45;;;;;;;9.87;2.93;;;10.10;99.90;;;;;;10441623;28;20232;-64
2023/12/12 00:48:58;;;;;;;10.20;3.00;;;10.10;99.90;;;;;;10437378;28;20199;-63
2023/12/12 00:54:03;;;;;;;7.20;2.87;;;10.10;99.90;;;;;;10437026;28;20270;-64
2023/12/12 00:59:07;;;;;;;9.53;3.00;;;10.10;99.90;;;;;;10436471;28;20652;-64
2023/12/12 01:04:11;;;;;;;9.60;3.27;;;10.10;99.90;;;;;;10439576;28;20267;-64
2023/12/12 01:09:16;;;;;;;7.83;3.40;;;10.10;99.90;;;;;;10436773;28;20209;-64
2023/12/12 01:14:20;;;;;;;6.83;2.77;;;10.20;99.90;;;;;;10437502;28;20678;-63
2023/12/12 01:19:23;;;;;;;8.90;3.07;;;10.20;99.90;;;;;;10437706;28;20204;-64
2023/12/12 01:24:30;;;;;;;9.23;2.90;;;10.20;99.90;;;;;;10437018;28;20219;-64
2023/12/12 01:29:33;;;;;;;10.17;3.20;;;10.20;99.90;;;;;;10436483;28;20688;-64
2023/12/12 01:34:37;;;;;;;10.98;2.75;;;10.20;99.90;;;;;;10442954;28;20363;-63
2023/12/12 01:39:42;;;;;;;8.00;3.10;;;10.20;99.90;;;;;;10450920;28;20273;-64
2023/12/12 01:44:45;;;;;;;12.83;3.47;;;10.10;99.90;;;;;;10449778;28;20255;-64
2023/12/12 01:49:49;;;;;;;9.57;2.80;;;10.20;99.90;;;;;;10441541;28;20200;-64
2023/12/12 01:54:54;;;;;;;9.90;3.00;;;10.20;99.90;;;;;;10444712;28;20277;-64
2023/12/12 01:59:58;;;;;;;10.73;3.07;;;10.20;99.90;;;;;;10447353;28;20247;-64
2023/12/12 02:05:02;;;;;;;9.87;3.27;;;10.20;99.90;;;;;;10444147;28;20223;-62
2023/12/12 02:10:09;;;;;;;12.53;3.27;;;10.20;99.90;;;;;;10440907;28;20258;-63
2023/12/12 02:15:14;;;;;;;10.03;3.57;;;10.20;99.90;;;;;;10455728;28;20231;-63
2023/12/12 02:20:18;;;;;;;8.70;2.73;;;10.20;99.90;;;;;;10455431;28;20203;-63
2023/12/12 02:25:23;;;;;;;7.30;3.20;;;10.20;99.90;;;;;;10454708;28;20219;-62
2023/12/12 02:30:26;;;;;;;10.60;2.90;;;10.20;99.90;;;;;;10454984;28;20683;-63
2023/12/12 02:35:31;;;;;;;9.83;3.00;;;10.20;99.90;;;;;;10425438;28;20283;-65
2023/12/12 02:40:37;;;;;;;9.30;2.93;;;10.20;99.90;;;;;;10445648;28;20226;-66
2023/12/12 02:45:41;;;;;;;10.73;3.00;;;10.10;99.90;;;;;;10438187;28;20216;-65
2023/12/12 02:50:44;;;;;;;13.33;3.57;;;10.10;99.90;;;;;;10437182;28;20725;-65
2023/12/12 02:55:49;;;;;;;11.30;3.23;;;10.10;99.90;;;;;;10434848;28;20200;-66
2023/12/12 03:00:53;;;;;;;9.03;3.30;;;10.10;99.90;;;;;;10436936;28;20201;-65
2023/12/12 03:05:56;;;;;;;11.07;3.30;;;10.10;99.90;;;;;;10439653;28;20235;-66
2023/12/12 03:11:01;;;;;;;7.90;2.83;;;10.10;99.90;;;;;;10445235;28;20227;-66
2023/12/12 03:16:05;;;;;;;9.73;3.43;;;10.10;99.90;;;;;;10441878;28;20553;-66
2023/12/12 03:21:09;;;;;;;11.97;3.37;;;10.10;99.90;;;;;;10443384;28;20684;-65
2023/12/12 03:26:14;;;;;;;10.97;3.30;;;10.10;99.90;;;;;;10437502;28;20258;-65
2023/12/12 03:31:17;;;;;;;17.67;4.00;;;10.10;99.90;;;;;;10443413;28;20230;-65
2023/12/12 03:36:21;;;;;;;15.30;3.70;;;10.10;99.90;;;;;;10437413;28;20242;-65
2023/12/12 03:41:26;;;;;;;13.97;3.53;;;10.10;99.90;;;;;;10448355;28;20266;-65
2023/12/12 03:46:30;;;;;;;13.63;3.53;;;10.10;99.90;;;;;;10448338;28;20215;-66
2023/12/12 03:51:33;;;;;;;16.97;3.70;;;10.10;99.90;;;;;;10450953;28;20231;-65
2023/12/12 03:56:38;;;;;;;14.50;3.40;;;10.10;99.90;;;;;;10450168;28;20207;-65
2023/12/12 04:01:47;;;;;;;13.53;3.90;;;10.10;99.90;;;;;;10449063;28;20215;-65
2023/12/12 04:06:50;;;;;;;14.03;3.43;;;10.10;99.90;;;;;;10449901;28;20265;-65
2023/12/12 04:11:55;;;;;;;16.97;3.77;;;10.00;99.90;;;;;;10447749;28;20223;-66
2023/12/12 04:16:59;;;;;;;17.67;3.67;;;10.00;99.90;;;;;;10448708;28;20635;-65
2023/12/12 04:22:03;;;;;;;17.37;4.10;;;10.00;99.90;;;;;;10449076;28;20269;-65
2023/12/12 04:27:07;;;;;;;19.10;4.30;;;10.00;99.90;;;;;;10448839;28;20268;-66
2023/12/12 04:32:11;;;;;;;22.50;4.40;;;10.00;99.90;;;;;;10448721;28;20277;-66
2023/12/12 04:37:14;;;;;;;18.37;4.20;;;10.00;99.90;;;;;;10424880;28;113293;-66
2023/12/12 04:42:19;;;;;;;16.70;3.80;;;10.00;99.90;;;;;;10401697;28;20247;-66
2023/12/12 04:47:23;;;;;;;22.33;4.25;;;9.90;99.90;;;;;;10396116;28;20224;-66
2023/12/12 04:52:28;;;;;;;20.30;4.40;;;9.90;99.90;;;;;;10398967;28;20227;-65
2023/12/12 04:57:33;;;;;;;15.33;4.63;;;9.90;99.90;;;;;;10395156;28;20201;-66
2023/12/12 05:02:37;;;;;;;21.10;4.97;;;9.80;99.90;;;;;;10398237;28;20220;-65
2023/12/12 05:07:40;;;;;;;14.13;4.43;;;9.80;99.90;;;;;;10396484;28;20220;-64
2023/12/12 05:12:45;;;;;;;18.03;4.70;;;9.80;99.90;;;;;;10402244;28;20216;-65
2023/12/12 05:17:49;;;;;;;19.73;4.73;;;9.70;99.90;;;;;;10410106;28;20246;-64
2023/12/12 05:22:53;;;;;;;14.30;4.00;;;9.70;99.90;;;;;;10414229;28;20220;-64
2023/12/12 05:27:58;;;;;;;19.07;4.60;;;9.70;99.90;;;;;;10413392;28;20212;-64
2023/12/12 05:33:01;;;;;;;20.37;4.60;;;9.60;99.90;;;;;;10414770;28;20278;-60
2023/12/12 05:38:06;;;;;;;17.40;4.60;;;9.60;99.90;;;;;;10411903;28;20219;-60
2023/12/12 05:43:11;;;;;;;15.10;4.57;;;9.50;99.90;;;;;;10414446;28;20267;-62
2023/12/12 05:48:15;;;;;;;19.57;5.53;;;9.50;99.90;;;;;;10409283;28;20204;-60
2023/12/12 05:53:18;;;;;;;17.77;4.60;;;9.50;99.90;;;;;;10405553;28;20772;-61
2023/12/12 05:58:24;;;;;;;27.57;7.50;;;9.40;99.90;;;;;;10412225;28;20262;-62
2023/12/12 06:03:27;;;;;;;17.80;5.40;;;9.30;99.90;;;;;;10410507;28;20270;-62
2023/12/12 06:08:31;;;;;;;21.60;5.33;;;9.40;99.90;;;;;;10411793;28;20204;-62
2023/12/12 06:13:36;;;;;;;24.97;5.87;;;9.30;99.90;;;;;;10412392;28;20216;-60
2023/12/12 06:18:39;;;;;;;22.90;5.30;;;9.30;99.90;;;;;;10411260;28;20212;-60
2023/12/12 06:23:43;;;;;;;24.23;5.30;;;9.30;99.90;;;;;;10401989;28;20275;-62
2023/12/12 06:28:49;;;;;;;20.70;5.67;;;9.30;99.90;;;;;;10409828;28;20212;-62
2023/12/12 06:33:53;;;;;;;24.83;6.60;;;9.30;99.90;;;;;;10404656;28;20221;-63
2023/12/12 06:38:57;;;;;;;19.33;5.20;;;9.30;99.90;;;;;;10410447;28;20204;-63
2023/12/12 06:44:02;;;;;;;17.67;5.00;;;9.30;99.90;;;;;;10411755;28;20259;-62
2023/12/12 06:49:06;;;;;;;18.80;5.73;;;9.30;99.90;;;;;;10407358;28;20201;-62
2023/12/12 06:54:10;;;;;;;21.03;5.27;;;9.30;99.90;;;;;;10409696;28;20228;-61
2023/12/12 06:59:15;;;;;;;20.27;5.40;;;9.30;99.90;;;;;;10406322;28;20274;-62
2023/12/12 07:04:19;;;;;;;19.53;5.40;;;9.30;99.90;;;;;;10411309;28;20223;-62
2023/12/12 07:09:22;;;;;;;24.53;6.10;;;9.30;99.90;;;;;;10408804;28;20246;-63
2023/12/12 07:14:28;;;;;;;20.80;6.20;;;9.40;99.90;;;;;;10409916;28;20220;-62
2023/12/12 07:19:31;;;;;;;20.73;6.67;;;9.40;99.90;;;;;;10399756;28;20675;-62
2023/12/12 07:24:35;;;;;;;23.03;5.90;;;9.40;99.90;;;;;;10410494;28;20224;-62
2023/12/12 07:29:40;;;;;;;26.92;8.93;;;9.40;99.90;;;;;;10403712;28;20856;-62
2023/12/12 07:34:44;;;;;;;28.13;7.67;;;9.50;99.90;;;;;;10399895;28;20266;-63
2023/12/12 07:39:48;;;;;;;30.77;9.10;;;9.60;99.90;;;;;;10406586;28;20201;-62
2023/12/12 07:44:53;;;;;;;28.00;7.77;;;9.60;99.90;;;;;;10406260;28;20228;-63
2023/12/12 07:49:57;;;;;;;22.00;7.43;;;9.60;99.90;;;;;;10406398;28;20242;-62
2023/12/12 07:55:01;;;;;;;19.67;6.90;;;9.70;99.90;;;;;;10405109;28;20247;-62
2023/12/12 08:00:09;;;;;;;22.17;6.20;;;9.60;99.90;;;;;;10407075;28;20615;-62
2023/12/12 08:05:13;;;;;;;23.10;5.57;;;9.70;99.90;;;;;;10408050;28;20266;-62
2023/12/12 08:10:17;;;;;;;16.63;5.47;;;9.70;99.90;;;;;;10408017;28;20301;-63
2023/12/12 08:15:22;;;;;;;21.80;5.87;;;9.70;99.90;;;;;;10407692;28;20277;-63
2023/12/12 08:20:26;;;;;;;19.90;6.15;;;9.80;99.90;;;;;;10403576;28;20207;-63
2023/12/12 08:25:30;;;;;;;18.10;5.10;;;9.80;99.90;;;;;;10405408;28;20281;-63
2023/12/12 08:30:36;;;;;;;18.30;5.38;;;9.80;99.90;;;;;;10406709;28;20589;-62
2023/12/12 08:35:40;;;;;;;22.13;6.03;;;9.90;99.90;;;;;;10402143;28;20200;-63
2023/12/12 08:40:44;;;;;;;20.23;5.60;;;9.90;99.90;;;;;;10402840;28;20212;-63
2023/12/12 08:45:50;;;;;;;16.77;4.87;;;10.00;99.90;;;;;;10413823;28;20220;-63
2023/12/12 08:50:53;;;;;;;18.15;5.07;;;10.10;99.90;;;;;;10410329;28;20244;-63
2023/12/12 08:55:58;;;;;;;14.23;5.20;;;10.10;99.90;;;;;;10416686;28;20270;-63
2023/12/12 09:01:03;;;;;;;14.70;5.17;;;10.20;99.90;;;;;;10412338;28;20282;-62
2023/12/12 09:06:08;;;;;;;16.20;5.27;;;10.30;99.90;;;;;;10411427;28;20228;-65
2023/12/12 09:11:12;;;;;;;18.52;4.75;;;10.30;99.90;;;;;;10412497;28;20251;-63
2023/12/12 09:16:19;;;;;;;16.10;5.30;;;10.40;99.90;;;;;;10415186;28;20196;-62
2023/12/12 09:21:22;;;;;;;15.50;4.78;;;10.50;99.90;;;;;;10413923;28;20757;-63
2023/12/12 09:26:26;;;;;;;18.25;4.10;;;10.50;99.90;;;;;;10415333;28;20274;-64
2023/12/12 09:31:32;;;;;;;13.20;4.20;;;10.60;99.90;;;;;;10414126;28;20654;-65
2023/12/12 09:36:36;;;;;;;13.60;3.90;;;10.70;99.90;;;;;;10410070;28;20223;-65
2023/12/12 09:41:40;;;;;;;14.57;4.13;;;10.80;99.90;;;;;;10414412;28;20642;-65
2023/12/12 09:46:46;;;;;;;11.40;3.33;;;10.80;99.90;;;;;;10410699;28;20220;-65
2023/12/12 09:51:52;;;;;;;17.63;3.42;;;10.90;99.90;;;;;;10413512;28;20278;-62
2023/12/12 09:56:56;;;;;;;12.80;3.92;;;11.00;99.90;;;;;;10404145;28;20625;-63
2023/12/12 10:02:02;;;;;;;14.50;3.88;;;11.00;99.90;;;;;;10411831;28;20282;-62
2023/12/12 10:07:18;;;;;;;14.88;3.40;;;11.10;99.90;;;;;;10412040;28;20687;-63
2023/12/12 10:12:22;;;;;;;13.93;3.40;;;11.20;99.90;;;;;;10409211;28;20247;-63
2023/12/12 10:17:28;;;;;;;16.60;3.90;;;11.30;99.90;;;;;;10412331;28;20219;-63
2023/12/12 10:22:32;;;;;;;13.77;3.17;;;11.40;99.90;;;;;;10416084;28;20614;-63
2023/12/12 10:27:36;;;;;;;14.40;3.17;;;11.40;99.90;;;;;;10412826;28;20561;-62
2023/12/12 10:32:41;;;;;;;8.55;3.08;;;11.40;99.90;;;;;;10408493;28;20318;-63
2023/12/12 10:37:45;;;;;;;12.77;3.22;;;11.40;99.90;;;;;;10407681;28;20197;-63
2023/12/12 10:42:49;;;;;;;12.32;3.45;;;11.40;99.90;;;;;;10368731;28;20234;-63
2023/12/12 10:47:57;;;;;;;7.13;2.30;;;11.50;99.90;;;;;;10403735;28;20247;-63
2023/12/12 10:53:03;;;;;;;6.28;2.60;;;11.50;99.90;;;;;;10410908;28;20313;-63
2023/12/12 10:58:08;;;;;;;7.10;2.28;;;11.60;99.90;;;;;;10405653;28;20193;-62
2023/12/12 11:03:13;;;;;;;9.90;2.40;;;11.70;99.90;;;;;;10407279;28;20228;-63
2023/12/12 11:08:16;;;;;;;9.48;2.67;;;11.70;99.90;;;;;;10403742;28;20251;-63
2023/12/12 11:13:22;;;;;;;11.65;2.25;;;11.80;99.90;;;;;;10404878;28;20216;-63
2023/12/12 11:18:27;;;;;;;8.77;2.30;;;11.90;99.80;;;;;;10409443;28;20258;-63
2023/12/12 11:23:55;;;;;;;8.68;2.75;;;12.00;99.60;;;;;;10410729;28;20243;-63
2023/12/12 11:28:59;;;;;;;10.23;3.88;;;12.00;99.40;;;;;;10398169;28;20698;-62
2023/12/12 11:34:07;;;;;;;12.07;2.90;;;12.10;99.60;;;;;;10408383;28;20221;-63
2023/12/12 11:39:23;;;;;;;16.38;6.75;;;12.20;99.50;;;;;;10403595;28;20192;-63
2023/12/12 11:44:40;;;;;;;9.68;2.40;;;12.40;99.10;;;;;;10403252;28;20217;-62
2023/12/12 11:49:45;;;;;;;6.78;2.47;;;12.50;98.80;;;;;;10404027;28;20822;-62
2023/12/12 11:54:53;;;;;;;8.57;2.83;;;12.50;99.20;;;;;;10405239;28;20275;-63
2023/12/12 12:00:00;;;;;;;7.97;2.28;;;12.50;98.70;;;;;;10402927;28;20223;-62
2023/12/12 12:05:06;;;;;;;5.18;2.05;;;12.60;99.20;;;;;;10404741;28;20625;-63
2023/12/12 12:10:10;;;;;;;8.85;1.80;;;12.60;99.20;;;;;;10404727;28;20250;-66
2023/12/12 12:15:14;;;;;;;9.10;2.47;;;12.60;99.10;;;;;;10407208;28;20228;-66
2023/12/12 12:20:19;;;;;;;8.38;2.10;;;12.60;98.80;;;;;;10403813;28;20262;-68
2023/12/12 12:25:26;;;;;;;6.30;1.67;;;12.70;98.90;;;;;;10408495;28;20224;-66
2023/12/12 12:30:44;;;;;;;9.18;3.28;;;12.70;99.20;;;;;;10408000;28;20224;-66
2023/12/12 12:35:52;;;;;;;5.30;2.47;;;12.80;98.70;;;;;;10407267;28;20235;-66
2023/12/12 12:40:56;;;;;;;5.75;2.08;;;12.80;99.20;;;;;;10400274;28;20204;-66
2023/12/12 12:46:08;;;;;;;7.57;1.73;;;12.90;99.10;;;;;;10404512;28;20222;-65
2023/12/12 12:51:13;;;;;;;4.95;1.70;;;12.90;98.50;;;;;;10406313;28;20244;-65
2023/12/12 12:56:18;;;;;;;4.80;1.48;;;12.80;98.90;;;;;;10399745;28;20204;-67
2023/12/12 13:01:23;;;;;;;7.15;1.35;;;12.80;98.70;;;;;;10406183;28;20220;-68
2023/12/12 13:06:31;;;;;;;9.75;1.85;;;12.90;98.60;;;;;;10399499;28;20220;-72
2023/12/12 13:11:37;;;;;;;4.20;1.70;;;12.90;98.40;;;;;;10406520;28;20224;-67
2023/12/12 13:16:42;;;;;;;6.72;1.88;;;12.90;98.70;;;;;;10406267;28;20259;-65
2023/12/12 13:21:49;;;;;;;5.88;1.70;;;12.80;98.70;;;;;;10406316;28;20216;-68
2023/12/12 13:26:55;;;;;;;3.67;1.58;;;12.70;98.70;;;;;;10399650;28;20224;-65
2023/12/12 13:31:59;;;;;;;4.57;1.60;;;12.60;98.80;;;;;;10410680;28;20761;-65
2023/12/12 13:37:05;;;;;;;4.93;1.20;;;12.50;98.50;;;;;;10409648;28;20254;-67
2023/12/12 13:42:09;;;;;;;5.55;1.65;;;12.40;98.90;;;;;;10410813;28;20707;-67
2023/12/12 13:47:12;;;;;;;5.10;1.55;;;12.40;99.00;;;;;;10405583;28;20757;-68
2023/12/12 13:52:17;;;;;;;5.50;1.83;;;12.40;99.40;;;;;;10412016;28;20695;-66
2023/12/12 13:57:22;;;;;;;7.68;1.80;;;12.30;99.40;;;;;;10406508;28;20302;-65
2023/12/12 14:02:27;;;;;;;5.25;1.50;;;12.30;99.90;;;;;;10410304;28;20228;-65
2023/12/12 14:07:37;;;;;;;4.28;1.50;;;12.30;99.90;;;;;;10404767;28;20224;-66
2023/12/12 14:12:41;;;;;;;3.97;1.65;;;12.20;99.90;;;;;;10409857;28;20216;-67
2023/12/12 14:17:45;;;;;;;4.10;1.95;;;12.10;99.90;;;;;;10382693;28;20223;-69
2023/12/12 14:22:50;;;;;;;5.35;2.08;;;12.00;99.90;;;;;;10404456;28;20698;-66
2023/12/12 14:28:09;;;;;;;7.63;2.15;;;12.00;99.90;;;;;;10396405;28;20289;-66
2023/12/12 14:33:13;;;;;;;6.97;2.40;;;11.90;99.90;;;;;;10410209;28;20979;-67
2023/12/12 14:38:18;;;;;;;5.30;2.38;;;11.90;99.90;;;;;;10407982;28;20254;-66
2023/12/12 14:43:22;;;;;;;7.28;2.67;;;11.80;99.90;;;;;;10404601;28;20275;-70
2023/12/12 14:48:25;;;;;;;6.07;2.35;;;11.70;99.90;;;;;;10410233;28;20224;-66
2023/12/12 14:53:30;;;;;;;6.05;2.65;;;11.70;99.90;;;;;;10408916;28;20274;-67
2023/12/12 14:58:34;;;;;;;5.90;2.85;;;11.70;99.90;;;;;;10404597;28;20242;-67
2023/12/12 15:03:38;;;;;;;6.65;3.00;;;11.60;99.90;;;;;;10408284;28;20982;-65
2023/12/12 15:08:43;;;;;;;5.53;2.90;;;11.60;99.90;;;;;;10409447;28;20250;-66
2023/12/12 15:13:46;;;;;;;8.48;3.92;;;11.50;99.90;;;;;;10408567;28;20744;-69
2023/12/12 15:18:50;;;;;;;7.72;2.97;;;11.50;99.90;;;;;;10403502;28;20196;-66
2023/12/12 15:23:56;;;;;;;9.20;3.85;;;11.50;99.90;;;;;;10409052;28;20294;-65
2023/12/12 15:29:00;;;;;;;9.75;4.43;;;11.40;99.90;;;;;;10401599;28;20274;-66
2023/12/12 15:34:04;;;;;;;9.85;3.60;;;11.40;99.90;;;;;;10400095;28;20220;-66
2023/12/12 15:39:11;;;;;;;4.68;2.65;;;11.40;99.90;;;;;;10408733;28;20640;-65
2023/12/12 15:44:15;;;;;;;3.50;2.45;;;11.40;99.90;;;;;;10407313;28;20220;-66
2023/12/12 15:49:18;;;;;;;6.15;3.17;;;11.40;99.90;;;;;;10408222;28;20255;-66
2023/12/12 15:54:24;;;;;;;5.68;2.90;;;11.40;99.90;;;;;;10406537;28;20278;-66
2023/12/12 15:59:27;;;;;;;4.22;2.85;;;11.40;99.90;;;;;;10409906;28;20200;-66
2023/12/12 16:04:33;;;;;;;5.22;2.97;;;11.40;99.90;;;;;;10408625;28;20603;-65
2023/12/12 16:09:38;;;;;;;4.65;3.30;;;11.30;99.90;;;;;;10408779;28;20220;-67
2023/12/12 16:14:41;;;;;;;5.30;3.08;;;11.30;99.90;;;;;;10404238;28;20271;-66
2023/12/12 16:19:46;;;;;;;5.35;2.63;;;11.30;99.90;;;;;;10406020;28;20211;-66
2023/12/12 16:24:51;;;;;;;5.17;3.10;;;11.30;99.90;;;;;;10405749;28;20880;-65
2023/12/12 16:29:55;;;;;;;5.72;3.42;;;11.30;99.90;;;;;;10401483;28;20224;-67
2023/12/12 16:34:58;;;;;;;5.78;3.28;;;11.30;99.90;;;;;;10406731;28;20228;-67
2023/12/12 16:40:04;;;;;;;6.57;3.90;;;11.30;99.90;;;;;;10405516;28;20246;-67
2023/12/12 16:45:13;;;;;;;6.07;3.80;;;11.30;99.90;;;;;;10400917;28;20220;-66
2023/12/12 16:50:17;;;;;;;5.20;4.30;;;11.30;99.90;;;;;;10403522;28;20258;-67
2023/12/12 16:55:22;;;;;;;7.32;4.30;;;11.30;99.90;;;;;;10404858;28;20701;-66
2023/12/12 17:00:26;;;;;;;8.93;5.18;;;11.30;99.90;;;;;;10407463;28;20196;-67
2023/12/12 17:05:33;;;;;;;5.15;4.15;;;11.30;99.90;;;;;;10407682;28;20224;-72
2023/12/12 17:10:38;;;;;;;7.20;5.15;;;11.30;99.90;;;;;;10409099;28;20662;-67
2023/12/12 17:15:42;;;;;;;7.80;5.68;;;11.30;99.90;;;;;;10408635;28;20208;-65
2023/12/12 17:20:45;;;;;;;9.00;5.22;;;11.30;99.90;;;;;;10411477;28;20609;-66
2023/12/12 17:25:51;;;;;;;7.47;4.55;;;11.30;99.90;;;;;;10411731;28;20573;-66
2023/12/12 17:30:54;;;;;;;7.03;5.10;;;11.30;99.90;;;;;;10375707;28;20749;-65
2023/12/12 17:35:58;;;;;;;7.88;5.55;;;11.30;99.90;;;;;;10405647;28;20212;-65
2023/12/12 17:41:03;;;;;;;8.88;5.53;;;11.30;99.90;;;;;;10406535;28;20620;-65
2023/12/12 17:46:07;;;;;;;10.23;7.40;;;11.30;99.90;;;;;;10408537;28;20875;-65
2023/12/12 17:51:13;;;;;;;8.32;6.72;;;11.30;99.90;;;;;;10411381;28;20231;-65
2023/12/12 17:56:18;;;;;;;9.60;7.60;;;11.30;99.90;;;;;;10408343;28;20208;-65
2023/12/12 18:01:22;;;;;;;10.77;8.90;;;11.30;99.90;;;;;;10404823;28;20274;-66
2023/12/12 18:06:26;;;;;;;11.75;8.55;;;11.30;99.90;;;;;;10409472;28;20200;-63
2023/12/12 18:11:32;;;;;;;9.82;7.60;;;11.30;99.90;;;;;;10406341;28;20252;-66
2023/12/12 18:16:36;;;;;;;9.73;6.82;;;11.30;99.90;;;;;;10409706;28;20208;-68
2023/12/12 18:21:40;;;;;;;14.75;11.73;;;11.30;99.90;;;;;;10409301;28;20365;-65
2023/12/12 18:26:45;;;;;;;9.55;6.60;;;11.30;99.90;;;;;;10401910;28;20254;-66
2023/12/12 18:31:48;;;;;;;7.93;6.15;;;11.30;99.90;;;;;;10401686;28;20321;-65
2023/12/12 18:36:52;;;;;;;6.07;5.40;;;11.30;99.90;;;;;;10402935;28;20625;-65
2023/12/12 18:41:57;;;;;;;7.40;5.63;;;11.30;99.90;;;;;;10403533;28;20243;-65
2023/12/12 18:47:04;;;;;;;10.40;7.68;;;11.30;99.90;;;;;;10399286;28;20298;-65
2023/12/12 18:52:07;;;;;;;51.33;22.17;;;11.40;99.90;;;;;;10406252;28;20278;-66
2023/12/12 18:57:12;;;;;;;14.25;8.90;;;11.30;99.90;;;;;;10407057;28;20251;-65
2023/12/12 19:02:16;;;;;;;14.52;10.85;;;11.40;99.90;;;;;;10394850;28;20224;-65
2023/12/12 19:07:20;;;;;;;8.80;7.20;;;11.40;99.90;;;;;;10395524;28;20235;-65
2023/12/12 19:12:25;;;;;;;12.13;7.32;;;11.40;99.90;;;;;;10402960;28;20346;-65
2023/12/12 19:17:29;;;;;;;6.55;4.60;;;11.40;99.90;;;;;;10410427;28;20196;-65
2023/12/12 19:22:33;;;;;;;7.72;6.00;;;11.40;99.90;;;;;;10410263;28;20228;-64
2023/12/12 19:27:38;;;;;;;7.80;6.03;;;11.40;99.90;;;;;;10407046;28;20254;-63
2023/12/12 19:32:42;;;;;;;9.52;6.57;;;11.40;99.90;;;;;;10406383;28;20219;-65
2023/12/12 19:37:48;;;;;;;9.18;7.15;;;11.40;99.90;;;;;;10410012;28;20204;-66
2023/12/12 19:42:54;;;;;;;9.30;7.28;;;11.40;99.90;;;;;;10408752;28;20216;-65
2023/12/12 19:47:58;;;;;;;7.55;6.65;;;11.40;99.90;;;;;;10408341;28;20201;-65
2023/12/12 19:53:04;;;;;;;8.75;6.32;;;11.40;99.90;;;;;;10406960;28;20682;-64
2023/12/12 19:58:10;;;;;;;10.80;6.95;;;11.30;99.90;;;;;;10408864;28;20196;-65
2023/12/12 20:03:13;;;;;;;9.80;7.15;;;11.30;99.90;;;;;;10411701;28;20254;-65
2023/12/12 20:08:17;;;;;;;9.52;7.03;;;11.30;99.90;;;;;;10408682;28;20204;-65
2023/12/12 20:13:23;;;;;;;9.13;8.07;;;11.30;99.90;;;;;;10406200;28;20223;-65
2023/12/12 20:18:29;;;;;;;11.25;8.35;;;11.30;99.90;;;;;;10404065;28;20729;-66
2023/12/12 20:23:33;;;;;;;11.00;7.80;;;11.30;99.90;;;;;;10405905;28;20246;-68
2023/12/12 20:28:38;;;;;;;11.20;9.30;;;11.30;99.90;;;;;;10397912;28;20454;-65
2023/12/12 20:33:42;;;;;;;10.82;7.78;;;11.30;99.90;;;;;;10405728;28;20285;-66
2023/12/12 20:38:46;;;;;;;12.48;8.27;;;11.40;99.90;;;;;;10408816;28;20651;-66
2023/12/12 20:43:51;;;;;;;8.65;7.75;;;11.40;99.90;;;;;;10417147;28;20567;-65
2023/12/12 20:48:56;;;;;;;8.98;7.68;;;11.30;99.90;;;;;;10416118;28;20196;-66
2023/12/12 20:53:59;;;;;;;8.75;7.57;;;11.30;99.90;;;;;;10413455;28;20232;-66
2023/12/12 20:59:05;;;;;;;9.60;8.10;;;11.30;99.90;;;;;;10411535;28;20736;-67
2023/12/12 21:04:08;;;;;;;10.25;8.95;;;11.30;99.90;;;;;;10408877;28;20221;-64
2023/12/12 21:09:13;;;;;;;12.23;10.43;;;11.30;99.90;;;;;;10414318;28;20427;-64
2023/12/12 21:14:17;;;;;;;11.45;9.68;;;11.30;99.90;;;;;;10412292;28;20224;-64
2023/12/12 21:19:21;;;;;;;10.68;9.32;;;11.30;99.90;;;;;;10414773;28;20262;-65
2023/12/12 21:24:25;;;;;;;10.50;9.30;;;11.30;99.90;;;;;;10402359;28;20752;-63
2023/12/12 21:29:31;;;;;;;9.77;8.73;;;11.30;99.90;;;;;;10410936;28;20212;-63
2023/12/12 21:34:35;;;;;;;10.60;9.40;;;11.20;99.90;;;;;;10408978;28;20224;-63
2023/12/12 21:39:38;;;;;;;10.27;9.32;;;11.20;99.90;;;;;;10412231;28;20313;-63
2023/12/12 21:44:43;;;;;;;11.10;9.13;;;11.10;99.90;;;;;;10411455;28;20764;-64
2023/12/12 21:49:47;;;;;;;11.38;10.25;;;11.10;99.90;;;;;;10409229;28;20205;-62
2023/12/12 21:54:51;;;;;;;10.93;9.93;;;11.00;99.90;;;;;;10413654;28;20228;-63
2023/12/12 21:59:57;;;;;;;12.15;10.95;;;11.00;99.90;;;;;;10404564;28;20201;-66
2023/12/12 22:05:01;;;;;;;13.30;11.43;;;10.90;99.90;;;;;;10409744;28;20219;-63
2023/12/12 22:10:05;;;;;;;14.45;11.98;;;10.90;99.90;;;;;;10401111;28;20271;-64
2023/12/12 22:15:11;;;;;;;13.57;11.95;;;10.80;99.90;;;;;;10402987;28;20765;-68
2023/12/12 22:20:14;;;;;;;16.02;11.60;;;10.90;99.90;;;;;;10409326;28;20227;-64
2023/12/12 22:25:18;;;;;;;12.23;11.07;;;10.80;99.90;;;;;;10408706;28;20227;-64
2023/12/12 22:30:23;;;;;;;9.23;6.78;;;10.80;99.90;;;;;;10403261;28;20275;-65
2023/12/12 22:35:27;;;;;;;7.30;5.13;;;10.80;99.90;;;;;;10406788;28;20216;-63
2023/12/12 22:40:30;;;;;;;11.07;4.30;;;10.80;99.90;;;;;;10398552;28;20259;-63
2023/12/12 22:45:35;;;;;;;9.70;4.10;;;10.80;99.90;;;;;;10412137;28;20228;-64
2023/12/12 22:50:39;;;;;;;6.80;3.37;;;10.80;99.90;;;;;;10404920;28;20601;-64
2023/12/12 22:55:43;;;;;;;4.30;2.70;;;10.80;99.90;;;;;;10413013;28;20223;-65
2023/12/12 23:00:48;;;;;;;8.70;4.00;;;10.80;99.90;;;;;;10410744;28;20197;-66
2023/12/12 23:05:52;;;;;;;6.45;3.85;;;10.80;99.90;;;;;;10410286;28;20661;-64
2023/12/12 23:10:56;;;;;;;7.18;3.67;;;10.80;99.90;;;;;;10403736;28;20220;-66
2023/12/12 23:16:01;;;;;;;7.57;4.23;;;10.90;99.90;;;;;;10389795;28;20208;-65
2023/12/12 23:21:05;;;;;;;7.10;3.07;;;10.90;99.90;;;;;;10408534;28;20220;-64
2023/12/12 23:26:08;;;;;;;5.22;2.70;;;10.90;99.90;;;;;;10409459;28;20254;-64
2023/12/12 23:31:13;;;;;;;4.18;2.30;;;10.80;99.90;;;;;;10405434;28;20651;-65
2023/12/12 23:36:18;;;;;;;6.43;3.23;;;10.80;99.90;;;;;;10405461;28;20200;-65
2023/12/12 23:41:21;;;;;;;6.10;2.10;;;10.80;99.90;;;;;;10410015;28;20839;-65
2023/12/12 23:46:26;;;;;;;6.87;3.13;;;10.80;99.90;;;;;;10410758;28;20255;-65
2023/12/12 23:51:30;;;;;;;5.15;2.72;;;10.80;99.90;;;;;;10409709;28;20224;-65
2023/12/12 23:56:33;;;;;;;3.78;2.33;;;10.80;99.90;;;;;;10408467;28;20200;-65
